Latest Weather Observations for Beerburrum

IDQ60901

Issued at 10:05 pm EST Sunday 21 September 2014 (issued every 10 minutes, with the page automatically refreshed every 10 minutes)

About weather observations | Map of Brisbane area stations | Latest observations for Brisbane area | Other Formats
Station Details ID: 040284 Name: BEERBURRUM FOREST STATION Lat: -26.96 Lon: 152.96 Height: 48.0 m
Data from the previous 72 hours. | See also: Recent months at Beerburrum
Date/Time
EST
Tmp

°C
App
Tmp
°C
Dew
Point
°C
Rel
Hum
%
Delta-T

°C
Wind Press
QNH
hPa
Press
MSL
hPa
Rain
since
9 am
mm
Dir
 
Spd
km/h
Gust
km/h
Spd
kts
Gust
kts
21/10:00pm 15.1 15.3 13.1 88 1.1 SSW 4 9 2 5 - - 0.6
21/09:30pm 14.9 14.6 12.8 87 1.2 SSW 6 9 3 5 - - 0.6
21/09:00pm 15.7 15.6 13.2 85 1.4 SSW 6 11 3 6 - - 0.6
21/08:30pm 16.0 15.2 12.9 82 1.7 S 9 19 5 10 - - 0.6
21/08:00pm 14.8 15.4 11.9 83 1.6 CALM 0 0 0 0 - - 0.6
21/07:30pm 15.0 15.6 12.0 82 1.6 CALM 0 0 0 0 - - 0.6
21/07:00pm 15.3 16.0 12.1 81 1.7 CALM 0 0 0 0 - - 0.6
21/06:30pm 15.8 16.5 12.2 79 2.0 CALM 0 7 0 4 - - 0.6
21/06:00pm 16.5 17.2 12.1 75 2.4 CALM 0 6 0 3 - - 0.6
21/05:30pm 17.7 17.9 11.9 69 3.2 E 2 9 1 5 - - 0.6
21/05:00pm 18.8 18.8 12.5 67 3.5 ESE 4 11 2 6 - - 0.6
21/04:30pm 19.3 18.7 12.3 64 3.9 SE 7 19 4 10 - - 0.6
21/04:00pm 18.8 18.1 12.1 65 3.7 E 7 13 4 7 - - 0.6
21/03:30pm 18.8 18.1 12.1 65 3.7 ESE 7 17 4 9 - - 0.6
21/03:00pm 21.1 20.5 13.5 62 4.4 ESE 9 15 5 8 - - 0.6
21/02:30pm 19.7 19.1 12.2 62 4.2 E 7 11 4 6 - - 0.4
21/02:00pm 19.7 19.1 12.2 62 4.2 ENE 7 15 4 8 - - 0.4
21/01:30pm 19.9 19.7 13.6 67 3.6 E 7 17 4 9 - - 0.4
21/01:00pm 20.3 21.2 16.7 80 2.2 ENE 7 15 4 8 - - 0.4
21/12:30pm 18.8 19.3 14.9 78 2.3 ENE 6 11 3 6 - - 0.4
21/12:00pm 17.5 17.6 13.8 79 2.1 S 6 9 3 5 - - 0.0
21/11:30am 19.8 18.9 12.6 63 4.1 ESE 9 13 5 7 - - 0.0
21/11:00am 20.3 18.8 12.0 59 4.6 S 11 20 6 11 - - 0.0
21/10:30am 20.6 19.7 12.6 60 4.5 SSE 9 17 5 9 - - 0.0
21/10:00am 20.0 19.4 12.3 61 4.3 SE 7 13 4 7 - - 0.0
21/09:30am 19.6 18.6 12.4 63 4.0 S 9 17 5 9 - - 0.0
21/09:00am 17.0 16.7 11.5 70 3.0 S 4 13 2 7 - - 10.4
21/08:30am 17.2 15.2 10.3 64 3.7 S 11 20 6 11 - - 10.4
21/08:00am 17.1 16.1 10.9 67 3.3 S 7 17 4 9 - - 10.4
21/07:30am 15.7 15.7 12.3 80 1.9 SSW 4 7 2 4 - - 10.4
21/07:00am 14.2 13.7 12.1 87 1.1 SW 6 7 3 4 - - 10.4
21/06:30am 12.0 11.1 10.7 92 0.7 SW 6 7 3 4 - - 10.4
21/06:00am 11.4 10.3 10.0 91 0.7 SW 6 7 3 4 - - 10.4
21/05:30am 11.6 10.6 10.2 91 0.7 SW 6 7 3 4 - - 10.4
21/05:00am 12.2 11.3 10.6 90 0.8 SW 6 7 3 4 - - 10.2
21/04:30am 12.5 12.0 10.9 90 0.8 SW 4 7 2 4 - - 10.2
21/04:00am 12.8 12.0 11.0 89 0.9 SW 6 7 3 4 - - 10.2
21/03:30am 13.5 13.0 11.9 90 0.9 SW 6 7 3 4 - - 10.2
21/03:00am 14.1 14.2 12.7 91 0.8 SW 4 6 2 3 - - 10.2
21/02:30am 14.3 14.5 12.9 91 0.8 SW 4 7 2 4 - - 10.2
21/02:00am 14.5 14.7 12.9 90 0.9 SW 4 7 2 4 - - 10.2
21/01:30am 14.5 14.3 13.0 91 0.8 WSW 6 7 3 4 - - 10.2
21/01:00am 14.6 14.9 13.3 92 0.7 SW 4 7 2 4 - - 10.2
21/12:30am 14.6 14.5 13.3 92 0.7 SSW 6 7 3 4 - - 10.2
21/12:00am 14.9 15.2 13.4 91 0.8 WSW 4 6 2 3 - - 10.2
 
Date/Time
EST
Tmp

°C
App
Tmp
°C
Dew
Point
°C
Rel
Hum
%
Delta-T

°C
Wind Press
QNH
hPa
Press
MSL
hPa
Rain
since
9 am
mm
Dir
 
Spd
km/h
Gust
km/h
Spd
kts
Gust
kts
20/11:30pm 15.0 16.1 13.5 91 0.8 CALM 0 0 0 0 - - 10.2
20/11:00pm 15.2 16.0 13.6 90 0.9 S 2 7 1 4 - - 10.2
20/10:30pm 14.4 15.3 13.0 91 0.8 CALM 0 0 0 0 - - 10.2
20/10:00pm 14.5 15.4 12.9 90 0.9 CALM 0 6 0 3 - - 10.2
20/09:30pm 15.1 16.2 13.6 91 0.8 CALM 0 0 0 0 - - 10.2
20/09:00pm 15.6 17.0 14.3 92 0.7 CALM 0 0 0 0 - - 10.2
20/08:30pm 15.7 17.0 14.2 91 0.9 CALM 0 0 0 0 - - 10.2
20/08:00pm 15.7 17.1 14.4 92 0.7 CALM 0 0 0 0 - - 10.2
20/07:30pm 16.1 17.6 14.6 91 0.9 CALM 0 0 0 0 - - 10.2
20/07:00pm 16.1 17.6 14.6 91 0.9 CALM 0 0 0 0 - - 10.2
20/06:30pm 16.4 17.9 14.6 89 1.0 CALM 0 0 0 0 - - 10.2
20/06:00pm 16.4 17.4 14.4 88 1.1 E 2 7 1 4 - - 10.2
20/05:30pm 16.7 17.1 14.7 88 1.2 ESE 6 9 3 5 - - 10.2
20/05:00pm 17.1 17.5 15.3 89 1.1 E 7 13 4 7 - - 9.8
20/04:30pm 17.3 18.0 15.5 89 1.1 E 6 11 3 6 - - 7.6
20/04:00pm 17.4 18.0 15.7 90 1.0 ENE 7 13 4 7 - - 7.2
20/03:30pm 17.0 17.6 15.3 90 1.0 E 6 9 3 5 - - 7.0
20/03:00pm 17.3 17.6 14.9 86 1.4 E 7 15 4 8 - - 2.8
20/02:30pm 18.4 18.6 14.3 77 2.4 NNE 6 15 3 8 - - 0.0
20/02:00pm 20.3 19.8 13.7 66 3.8 SSE 9 19 5 10 - - 0.0
20/01:30pm 21.2 20.5 13.1 60 4.6 S 9 15 5 8 - - 0.0
20/01:00pm 22.3 21.4 12.5 53 5.6 SSE 9 17 5 9 - - 0.0
20/12:30pm 23.2 22.6 13.4 54 5.7 ESE 9 17 5 9 - - 0.0
20/12:00pm 22.9 23.1 14.7 60 4.9 ESE 7 19 4 10 - - 0.0
20/11:30am 20.6 20.5 14.0 66 3.8 SE 7 15 4 8 - - 0.0
20/11:00am 20.2 19.0 12.9 63 4.1 SSE 11 20 6 11 - - 0.0
20/10:30am 23.1 22.5 13.6 55 5.5 E 9 20 5 11 - - 0.0
20/10:00am 21.7 21.3 12.3 55 5.3 S 6 9 3 5 - - 0.0
20/09:30am 22.2 21.8 12.5 54 5.5 S 6 13 3 7 - - 0.0
20/09:00am 21.4 21.3 13.3 60 4.7 S 6 11 3 6 - - 0.0
20/08:30am 19.5 19.1 13.0 66 3.7 S 7 9 4 5 - - 0.0
20/08:00am 18.1 17.8 12.8 71 3.0 SSW 6 7 3 4 - - 0.0
20/07:30am 16.0 15.8 13.1 83 1.6 SSW 6 7 3 4 - - 0.0
20/07:00am 13.9 14.4 12.8 93 0.6 SSW 2 6 1 3 - - 0.0
20/06:30am 12.5 13.0 11.6 94 0.5 CALM 0 0 0 0 - - 0.0
20/06:00am 11.6 11.8 10.5 93 0.6 CALM 0 0 0 0 - - 0.0
20/05:30am 11.0 11.0 9.9 93 0.6 CALM 0 0 0 0 - - 0.0
20/05:00am 10.5 10.4 9.4 93 0.6 CALM 0 0 0 0 - - 0.0
20/04:30am 9.9 9.6 8.7 92 0.6 CALM 0 2 0 1 - - 0.0
20/04:00am 9.6 9.2 8.4 92 0.6 CALM 0 0 0 0 - - 0.0
20/03:30am 9.7 9.4 8.5 92 0.6 CALM 0 0 0 0 - - 0.0
20/03:00am 10.0 9.7 8.8 92 0.6 CALM 0 0 0 0 - - 0.0
20/02:30am 10.2 9.9 8.8 91 0.7 CALM 0 0 0 0 - - 0.0
20/02:00am 10.7 10.6 9.3 91 0.7 CALM 0 6 0 3 - - 0.0
20/01:30am 11.0 10.9 9.6 91 0.7 CALM 0 0 0 0 - - 0.0
20/01:00am 11.2 11.2 9.8 91 0.7 CALM 0 0 0 0 - - 0.0
20/12:30am 11.5 11.6 10.1 91 0.7 CALM 0 0 0 0 - - 0.0
20/12:00am 11.8 11.9 10.2 90 0.8 CALM 0 0 0 0 - - 0.0
 
Date/Time
EST
Tmp

°C
App
Tmp
°C
Dew
Point
°C
Rel
Hum
%
Delta-T

°C
Wind Press
QNH
hPa
Press
MSL
hPa
Rain
since
9 am
mm
Dir
 
Spd
km/h
Gust
km/h
Spd
kts
Gust
kts
19/11:30pm 12.1 12.2 10.3 89 0.9 CALM 0 0 0 0 - - 0.0
19/11:00pm 12.8 13.1 10.9 88 1.0 CALM 0 0 0 0 - - 0.0
19/10:30pm 13.0 13.4 11.1 88 1.0 CALM 0 0 0 0 - - 0.0
19/10:00pm 13.4 13.8 11.1 86 1.2 CALM 0 0 0 0 - - 0.0
19/09:30pm 13.7 14.1 11.2 85 1.3 CALM 0 0 0 0 - - 0.0
19/09:00pm 14.4 14.9 11.7 84 1.5 CALM 0 6 0 3 - - 0.0
19/08:30pm 15.0 14.9 12.0 82 1.6 NE 4 6 2 3 - - 0.0
19/08:00pm 15.5 15.5 12.3 81 1.8 NNE 4 6 2 3 - - 0.0
19/07:30pm 15.8 16.4 11.8 77 2.2 CALM 0 6 0 3 - - 0.0
19/07:00pm 16.8 16.7 12.1 74 2.6 N 4 7 2 4 - - 0.0
19/06:30pm 17.5 17.1 12.4 72 2.8 N 6 9 3 5 - - 0.0
19/06:00pm 18.2 18.4 11.7 66 3.6 N 2 7 1 4 - - 0.0
19/05:30pm 19.6 18.5 11.9 61 4.3 NNE 9 17 5 9 - - 0.0
19/05:00pm 20.8 20.5 12.8 60 4.5 ENE 6 9 3 5 - - 0.0
19/04:30pm 21.5 21.0 12.6 57 5.1 ENE 7 13 4 7 - - 0.0
19/04:00pm 22.0 20.6 12.3 54 5.5 ENE 11 24 6 13 - - 0.0
19/03:30pm 22.7 21.4 11.4 49 6.3 ENE 9 19 5 10 - - 0.0
19/03:00pm 23.2 21.4 10.9 46 6.8 ENE 11 17 6 9 - - 0.0
19/02:30pm 23.6 21.3 10.6 44 7.2 E 13 32 7 17 - - 0.0
19/02:00pm 24.3 22.9 10.9 43 7.5 E 9 15 5 8 - - 0.0
19/01:30pm 23.6 21.9 11.3 46 6.9 E 11 17 6 9 - - 0.0
19/01:00pm 22.9 21.4 10.7 46 6.7 E 9 17 5 9 - - 0.0
19/12:30pm 23.8 21.9 10.5 43 7.4 E 11 22 6 12 - - 0.0
19/12:00pm 24.1 21.8 7.3 34 8.8 NNE 9 17 5 9 - - 0.0
19/11:30am 23.9 22.0 6.7 33 8.9 NNE 6 13 3 7 - - 0.0
19/11:00am 23.3 21.3 7.0 35 8.5 NNE 7 17 4 9 - - 0.0
19/10:30am 22.6 20.6 7.2 37 8.0 N 7 13 4 7 - - 0.0
19/10:00am 21.8 20.4 7.2 39 7.5 SE 4 9 2 5 - - 0.0
19/09:30am 20.7 19.0 7.7 43 6.7 ESE 6 9 3 5 - - 0.0
19/09:00am 19.6 17.9 7.7 46 6.1 ENE 6 9 3 5 - - 0.0
19/08:30am 17.6 16.2 7.4 51 5.1 SSE 4 9 2 5 - - 0.0
19/08:00am 16.3 14.6 7.5 56 4.4 S 6 7 3 4 - - 0.0
19/07:30am 13.5 13.3 9.2 75 2.2 CALM 0 0 0 0 - - 0.0
19/07:00am 9.9 9.7 9.0 94 0.4 CALM 0 6 0 3 - - 0.0
19/06:30am 6.3 5.2 5.3 93 0.4 CALM 0 0 0 0 - - 0.0
19/06:00am 5.9 4.7 4.7 92 0.5 CALM 0 0 0 0 - - 0.0
19/05:30am 6.3 5.2 5.1 92 0.5 CALM 0 0 0 0 - - 0.0
19/05:00am 6.5 5.4 5.3 92 0.5 CALM 0 0 0 0 - - 0.0
19/04:30am 6.9 5.9 5.5 91 0.6 CALM 0 0 0 0 - - 0.0
19/04:00am 7.1 6.2 5.9 92 0.5 CALM 0 0 0 0 - - 0.0
19/03:30am 7.1 6.1 5.6 90 0.7 CALM 0 0 0 0 - - 0.0
19/03:00am 7.7 6.9 6.3 91 0.6 CALM 0 0 0 0 - - 0.0
19/02:30am 7.3 6.3 5.8 90 0.7 CALM 0 0 0 0 - - 0.0
19/02:00am 7.7 6.8 6.2 90 0.7 CALM 0 0 0 0 - - 0.0
19/01:30am 7.7 6.8 6.0 89 0.8 CALM 0 0 0 0 - - 0.0
19/01:00am 8.0 7.2 6.5 90 0.7 CALM 0 0 0 0 - - 0.0
19/12:30am 8.1 7.3 6.4 89 0.8 CALM 0 0 0 0 - - 0.0
19/12:00am 8.3 7.5 6.4 88 0.9 CALM 0 0 0 0 - - 0.0
 
Date/Time
EST
Tmp

°C
App
Tmp
°C
Dew
Point
°C
Rel
Hum
%
Delta-T

°C
Wind Press
QNH
hPa
Press
MSL
hPa
Rain
since
9 am
mm
Dir
 
Spd
km/h
Gust
km/h
Spd
kts
Gust
kts
18/11:30pm 8.9 8.2 6.9 87 0.9 CALM 0 6 0 3 - - 0.0
18/11:00pm 9.3 8.6 7.1 86 1.0 CALM 0 0 0 0 - - 0.0
18/10:30pm 9.8 9.2 7.2 84 1.2 CALM 0 0 0 0 - - 0.0

Latest Capital City Observations: Canberra | Sydney | Melbourne | Brisbane | Adelaide | Perth | Hobart | Darwin

Other Formats:

Comma delimited format used in spreadsheet applications
http://www.bom.gov.au/fwo/IDQ60901/IDQ60901.95566.axf

JavaScript Object Notation format (JSON) in row-major order
http://www.bom.gov.au/fwo/IDQ60901/IDQ60901.95566.json